createdAt,value
2022-08-22T00:02:45.270Z,19.68
2022-08-22T00:03:24.147Z,17.78
2022-08-22T00:04:24.133Z,17.78
2022-08-22T00:05:24.127Z,17.76
2022-08-22T00:06:24.113Z,17.76
2022-08-22T00:07:24.130Z,17.76
2022-08-22T00:08:24.103Z,17.73
2022-08-22T00:09:24.090Z,17.73
2022-08-22T00:10:25.582Z,17.74
2022-08-22T00:11:24.066Z,17.71
2022-08-22T00:12:24.074Z,17.71
2022-08-22T00:13:24.046Z,17.70
2022-08-22T00:14:24.026Z,17.69
2022-08-22T00:15:42.151Z,17.67
2022-08-22T00:16:24.016Z,17.67
2022-08-22T00:17:24.028Z,17.66
2022-08-22T00:18:23.988Z,17.64
2022-08-22T00:19:23.995Z,17.63
2022-08-22T00:20:26.122Z,17.63
2022-08-22T00:21:23.962Z,17.59
2022-08-22T00:22:23.976Z,17.59
2022-08-22T00:23:23.937Z,17.57
2022-08-22T00:24:23.933Z,17.57
2022-08-22T00:25:24.823Z,17.55
2022-08-22T00:26:23.904Z,17.54
2022-08-22T00:27:23.916Z,17.53
2022-08-22T00:28:23.887Z,17.53
2022-08-22T00:29:23.882Z,17.53
2022-08-22T00:30:23.856Z,17.54
2022-08-22T00:31:23.852Z,17.54
2022-08-22T00:32:23.864Z,17.54
2022-08-22T00:33:23.832Z,17.55
2022-08-22T00:34:23.815Z,17.54
2022-08-22T00:35:23.811Z,17.50
2022-08-22T00:36:23.794Z,17.47
2022-08-22T00:37:24.248Z,17.47
2022-08-22T00:38:23.790Z,17.46
2022-08-22T00:39:23.787Z,17.44
2022-08-22T00:40:23.772Z,17.43
2022-08-22T00:41:23.763Z,17.41
2022-08-22T00:42:31.386Z,17.35
2022-08-22T00:43:23.766Z,17.32
2022-08-22T00:44:23.730Z,17.30
2022-08-22T00:45:23.719Z,17.28
2022-08-22T00:46:23.705Z,17.25
2022-08-22T00:47:23.716Z,17.23
2022-08-22T00:48:23.692Z,17.20
2022-08-22T00:49:24.384Z,17.18
2022-08-22T00:50:23.676Z,17.15
2022-08-22T00:51:23.655Z,17.18
2022-08-22T00:52:23.667Z,17.17
2022-08-22T00:53:23.634Z,17.13
2022-08-22T00:54:23.622Z,17.11
2022-08-22T00:55:23.619Z,17.10
2022-08-22T00:56:23.600Z,17.07
2022-08-22T00:57:23.608Z,17.06
2022-08-22T00:58:23.582Z,17.07
2022-08-22T00:59:24.262Z,17.06
2022-08-22T01:00:23.561Z,17.04
2022-08-22T01:01:23.602Z,17.03
2022-08-22T01:02:23.554Z,17.00
2022-08-22T01:03:23.529Z,16.98
2022-08-22T01:04:23.514Z,16.95
2022-08-22T01:05:23.512Z,16.93
2022-08-22T01:06:23.493Z,16.88
2022-08-22T01:07:23.507Z,16.85
2022-08-22T01:08:23.476Z,16.85
2022-08-22T01:09:23.467Z,16.83
2022-08-22T01:10:23.452Z,16.80
2022-08-22T01:11:23.449Z,16.78
2022-08-22T01:12:23.456Z,16.74
2022-08-22T01:13:23.419Z,16.73
2022-08-22T01:14:35.057Z,16.71
2022-08-22T01:15:23.406Z,16.70
2022-08-22T01:16:23.395Z,16.68
2022-08-22T01:17:23.398Z,16.65
2022-08-22T01:18:23.373Z,16.65
2022-08-22T01:19:23.360Z,16.62
2022-08-22T01:20:23.356Z,16.60
2022-08-22T01:21:24.389Z,16.58
2022-08-22T01:22:23.353Z,16.55
2022-08-22T01:23:23.314Z,16.53
2022-08-22T01:24:24.126Z,16.52
2022-08-22T01:25:26.096Z,16.49
2022-08-22T01:26:23.288Z,16.42
2022-08-22T01:27:23.295Z,16.41
2022-08-22T01:28:23.345Z,16.40
2022-08-22T01:29:28.401Z,16.38
2022-08-22T01:30:23.377Z,16.37
2022-08-22T01:31:23.233Z,16.35
2022-08-22T01:32:23.248Z,16.34
2022-08-22T01:33:23.213Z,16.34
2022-08-22T01:34:23.203Z,16.30
2022-08-22T01:35:23.189Z,16.30
2022-08-22T01:36:23.183Z,16.27
2022-08-22T01:37:23.202Z,16.27
2022-08-22T01:38:23.160Z,16.26
2022-08-22T01:39:23.154Z,16.26
2022-08-22T01:40:23.231Z,16.26
2022-08-22T01:41:23.125Z,16.27
2022-08-22T01:42:23.154Z,16.30
2022-08-22T01:43:23.108Z,16.31
2022-08-22T01:44:23.105Z,16.30
2022-08-22T01:45:23.082Z,16.27
2022-08-22T01:46:23.077Z,16.27
2022-08-22T01:47:23.083Z,16.26
2022-08-22T01:48:23.054Z,16.27
2022-08-22T01:49:23.043Z,16.27
2022-08-22T01:50:23.038Z,16.30
2022-08-22T01:51:23.024Z,16.33
2022-08-22T01:52:23.031Z,16.35
2022-08-22T01:53:23.000Z,16.35
2022-08-22T01:54:22.990Z,16.35
2022-08-22T01:55:22.984Z,16.38
2022-08-22T01:56:22.978Z,16.37
2022-08-22T01:57:22.984Z,16.38
2022-08-22T01:58:22.954Z,16.41
2022-08-22T01:59:22.936Z,16.41
2022-08-22T02:00:34.907Z,16.42
2022-08-22T02:01:22.965Z,16.44
2022-08-22T02:02:22.929Z,16.45
2022-08-22T02:03:22.896Z,16.44
2022-08-22T02:04:22.890Z,16.42
2022-08-22T02:05:22.873Z,16.42
2022-08-22T02:06:22.868Z,16.42
2022-08-22T02:07:26.506Z,16.41
2022-08-22T02:08:22.855Z,16.41
2022-08-22T02:09:22.829Z,16.37
2022-08-22T02:10:22.830Z,16.37
2022-08-22T02:11:22.815Z,16.37
2022-08-22T02:12:22.822Z,16.33
2022-08-22T02:13:22.788Z,16.33
2022-08-22T02:14:22.787Z,16.31
2022-08-22T02:15:22.768Z,16.27
2022-08-22T02:16:22.758Z,16.30
2022-08-22T02:17:22.772Z,16.27
2022-08-22T02:18:22.745Z,16.26
2022-08-22T02:19:22.732Z,16.23
2022-08-22T02:20:22.719Z,16.22
2022-08-22T02:21:22.819Z,16.20
2022-08-22T02:22:22.715Z,16.18
2022-08-22T02:23:22.684Z,16.16
2022-08-22T02:24:22.676Z,16.18
2022-08-22T02:25:22.659Z,16.18
2022-08-22T02:26:22.659Z,16.18
2022-08-22T02:27:22.669Z,16.15
2022-08-22T02:28:22.637Z,16.15
2022-08-22T02:29:22.622Z,16.12
2022-08-22T02:30:22.614Z,16.12
2022-08-22T02:31:22.604Z,16.11
2022-08-22T02:32:22.591Z,16.11
2022-08-22T02:33:22.604Z,16.07
2022-08-22T02:34:22.595Z,16.04
2022-08-22T02:35:22.557Z,16.01
2022-08-22T02:36:22.548Z,16.00
2022-08-22T02:37:22.537Z,16.00
2022-08-22T02:38:22.566Z,16.00
2022-08-22T02:39:22.512Z,15.96
2022-08-22T02:40:22.614Z,15.94
2022-08-22T02:41:22.500Z,15.94
2022-08-22T02:42:22.507Z,15.93
2022-08-22T02:43:22.472Z,15.92
2022-08-22T02:44:22.467Z,15.88
2022-08-22T02:45:22.452Z,15.86
2022-08-22T02:46:22.446Z,15.85
2022-08-22T02:47:22.457Z,15.85
2022-08-22T02:48:22.428Z,15.84
2022-08-22T02:49:22.415Z,15.84
2022-08-22T02:50:22.408Z,15.79
2022-08-22T02:51:22.388Z,15.79
2022-08-22T02:52:22.403Z,15.78
2022-08-22T02:53:22.366Z,15.76
2022-08-22T02:54:22.371Z,15.74
2022-08-22T02:55:22.352Z,15.74
2022-08-22T02:56:22.345Z,15.75
2022-08-22T02:57:22.438Z,15.74
2022-08-22T02:58:22.324Z,15.72
2022-08-22T02:59:22.303Z,15.72
2022-08-22T03:00:31.701Z,15.70
2022-08-22T03:01:22.366Z,15.70
2022-08-22T03:02:22.304Z,15.70
2022-08-22T03:03:22.267Z,15.67
2022-08-22T03:04:22.260Z,15.66
2022-08-22T03:05:22.242Z,15.67
2022-08-22T03:06:22.277Z,15.63
2022-08-22T03:07:22.226Z,15.61
2022-08-22T03:08:22.240Z,15.60
2022-08-22T03:09:22.201Z,15.60
2022-08-22T03:10:22.200Z,15.61
2022-08-22T03:11:22.179Z,15.61
2022-08-22T03:12:22.183Z,15.59
2022-08-22T03:13:22.185Z,15.59
2022-08-22T03:14:22.162Z,15.56
2022-08-22T03:15:22.135Z,15.57
2022-08-22T03:16:22.135Z,15.56
2022-08-22T03:17:22.119Z,15.54
2022-08-22T03:18:22.130Z,15.54
2022-08-22T03:19:22.095Z,15.52
2022-08-22T03:20:22.094Z,15.51
2022-08-22T03:21:22.079Z,15.51
2022-08-22T03:22:22.070Z,15.48
2022-08-22T03:23:22.074Z,15.46
2022-08-22T03:24:22.048Z,15.46
2022-08-22T03:25:22.036Z,15.43
2022-08-22T03:26:22.039Z,15.43
2022-08-22T03:27:32.385Z,15.42
2022-08-22T03:28:22.093Z,15.36
2022-08-22T03:29:21.992Z,15.36
2022-08-22T03:30:21.982Z,15.33
2022-08-22T03:31:21.974Z,15.31
2022-08-22T03:32:21.991Z,15.28
2022-08-22T03:33:21.949Z,15.28
2022-08-22T03:34:21.951Z,15.27
2022-08-22T03:35:21.934Z,15.26
2022-08-22T03:36:21.928Z,15.26
2022-08-22T03:37:21.935Z,15.26
2022-08-22T03:38:21.902Z,15.24
2022-08-22T03:39:21.888Z,15.23
2022-08-22T03:40:21.963Z,15.19
2022-08-22T03:41:21.874Z,15.15
2022-08-22T03:42:21.881Z,15.11
2022-08-22T03:43:21.848Z,15.05
2022-08-22T03:44:21.844Z,15.02
2022-08-22T03:45:21.827Z,14.98
2022-08-22T03:46:21.818Z,14.93
2022-08-22T03:47:21.848Z,14.88
2022-08-22T03:48:21.799Z,14.88
2022-08-22T03:49:21.785Z,14.86
2022-08-22T03:50:21.779Z,14.81
2022-08-22T03:51:21.769Z,14.78
2022-08-22T03:52:21.795Z,14.78
2022-08-22T03:53:21.743Z,14.74
2022-08-22T03:54:21.734Z,14.72
2022-08-22T03:55:21.717Z,14.74
2022-08-22T03:56:21.715Z,14.74
2022-08-22T03:57:21.697Z,14.78
2022-08-22T03:58:28.039Z,14.80
2022-08-22T03:59:21.690Z,14.78
2022-08-22T04:00:21.671Z,14.78
2022-08-22T04:01:21.662Z,14.78
2022-08-22T04:02:42.575Z,14.80
2022-08-22T04:03:21.672Z,14.80
2022-08-22T04:04:21.640Z,14.80
2022-08-22T04:05:21.626Z,14.80
2022-08-22T04:06:21.612Z,14.80
2022-08-22T04:07:31.691Z,14.81
2022-08-22T04:08:26.009Z,14.80
2022-08-22T04:09:21.586Z,14.80
2022-08-22T04:10:21.567Z,14.80
2022-08-22T04:11:21.566Z,14.80
2022-08-22T04:12:21.576Z,14.81
2022-08-22T04:13:21.536Z,14.81
2022-08-22T04:14:21.527Z,14.83
2022-08-22T04:15:21.509Z,14.87
2022-08-22T04:16:21.515Z,14.88
2022-08-22T04:17:21.512Z,14.90
2022-08-22T04:18:21.502Z,14.91
2022-08-22T04:19:21.475Z,14.91
2022-08-22T04:20:21.462Z,14.93
2022-08-22T04:21:21.465Z,14.91
2022-08-22T04:22:21.466Z,14.90
2022-08-22T04:23:21.428Z,14.93
2022-08-22T04:24:21.421Z,14.91
2022-08-22T04:25:21.411Z,14.86
2022-08-22T04:26:21.402Z,14.87
2022-08-22T04:27:21.410Z,14.87
2022-08-22T04:28:21.381Z,14.86
2022-08-22T04:29:21.367Z,14.86
2022-08-22T04:30:21.360Z,14.83
2022-08-22T04:31:21.349Z,14.83
2022-08-22T04:32:21.361Z,14.84
2022-08-22T04:33:21.327Z,14.83
2022-08-22T04:34:21.320Z,14.83
2022-08-22T04:35:21.313Z,14.80
2022-08-22T04:36:21.297Z,14.81
2022-08-22T04:37:21.305Z,14.81
2022-08-22T04:38:21.277Z,14.78
2022-08-22T04:39:21.279Z,14.81
2022-08-22T04:40:21.327Z,14.78
2022-08-22T04:41:21.243Z,14.75
2022-08-22T04:42:36.673Z,14.78
2022-08-22T04:43:21.228Z,14.78
2022-08-22T04:44:21.221Z,14.80
2022-08-22T04:45:21.209Z,14.78
2022-08-22T04:46:21.205Z,14.78
2022-08-22T04:47:21.201Z,14.81
2022-08-22T04:48:21.181Z,14.81
2022-08-22T04:49:21.233Z,14.83
2022-08-22T04:50:21.163Z,14.81
2022-08-22T04:51:21.158Z,14.84
2022-08-22T04:52:21.164Z,14.84
2022-08-22T04:53:21.117Z,14.87
2022-08-22T04:54:21.111Z,14.87
2022-08-22T04:55:21.101Z,14.91
2022-08-22T04:56:21.093Z,14.93
2022-08-22T04:57:21.099Z,14.95
2022-08-22T04:58:21.070Z,14.98
2022-08-22T04:59:21.052Z,14.98
2022-08-22T05:00:21.046Z,14.99
2022-08-22T05:01:21.119Z,15.01
2022-08-22T05:02:21.046Z,15.05
2022-08-22T05:03:21.013Z,15.05
2022-08-22T05:04:21.009Z,15.06
2022-08-22T05:05:21.015Z,15.06
2022-08-22T05:06:20.992Z,15.06
2022-08-22T05:07:20.992Z,15.11
2022-08-22T05:08:20.968Z,15.11
2022-08-22T05:09:20.951Z,15.13
2022-08-22T05:10:20.947Z,15.13
2022-08-22T05:11:20.927Z,15.15
2022-08-22T05:12:20.943Z,15.17
2022-08-22T05:13:20.907Z,15.19
2022-08-22T05:14:20.903Z,15.19
2022-08-22T05:15:23.315Z,15.21
2022-08-22T05:16:20.885Z,15.23
2022-08-22T05:17:20.883Z,15.23
2022-08-22T05:18:20.865Z,15.23
2022-08-22T05:19:28.368Z,15.23
2022-08-22T05:20:20.845Z,15.23
2022-08-22T05:21:20.826Z,15.23
2022-08-22T05:22:20.840Z,15.20
2022-08-22T05:23:20.847Z,15.20
2022-08-22T05:24:20.799Z,15.20
2022-08-22T05:25:20.779Z,15.20
2022-08-22T05:26:20.785Z,15.19
2022-08-22T05:27:20.762Z,15.19
2022-08-22T05:28:20.775Z,15.17
2022-08-22T05:29:20.746Z,15.17
2022-08-22T05:30:20.728Z,15.15
2022-08-22T05:31:23.219Z,15.12
2022-08-22T05:32:20.710Z,15.13
2022-08-22T05:33:20.725Z,15.13
2022-08-22T05:34:20.693Z,15.11
2022-08-22T05:35:20.681Z,15.12
2022-08-22T05:36:20.665Z,15.13
2022-08-22T05:37:20.663Z,15.15
2022-08-22T05:38:20.677Z,15.15
2022-08-22T05:39:20.644Z,15.17
2022-08-22T05:40:20.721Z,15.15
2022-08-22T05:41:20.621Z,15.17
2022-08-22T05:42:20.602Z,15.19
2022-08-22T05:43:20.619Z,15.20
2022-08-22T05:44:20.581Z,15.20
2022-08-22T05:45:20.579Z,15.23
2022-08-22T05:46:20.560Z,15.24
2022-08-22T05:47:20.579Z,15.27
2022-08-22T05:48:20.541Z,15.30
2022-08-22T05:49:20.545Z,15.33
2022-08-22T05:50:20.519Z,15.38
2022-08-22T05:51:20.512Z,15.39
2022-08-22T05:52:20.518Z,15.42
2022-08-22T05:53:20.492Z,15.46
2022-08-22T05:54:20.479Z,15.48
2022-08-22T05:55:20.472Z,15.51
2022-08-22T05:56:20.455Z,15.54
2022-08-22T05:57:20.472Z,15.56
2022-08-22T05:58:21.688Z,15.59
2022-08-22T05:59:20.429Z,15.61
2022-08-22T06:00:21.626Z,15.67
2022-08-22T06:01:20.467Z,15.75
2022-08-22T06:02:20.411Z,15.82
2022-08-22T06:03:20.388Z,15.92
2022-08-22T06:04:20.370Z,16.03
2022-08-22T06:05:20.368Z,16.15
2022-08-22T06:06:20.375Z,16.26
2022-08-22T06:07:20.367Z,16.37
2022-08-22T06:08:20.334Z,16.50
2022-08-22T06:09:20.329Z,16.60
2022-08-22T06:10:20.309Z,16.73
2022-08-22T06:11:20.306Z,16.86
2022-08-22T06:12:22.084Z,16.96
2022-08-22T06:13:24.517Z,17.08
2022-08-22T06:14:20.272Z,17.23
2022-08-22T06:15:20.935Z,17.35
2022-08-22T06:16:21.122Z,17.53
2022-08-22T06:17:20.258Z,17.64
2022-08-22T06:18:20.226Z,17.79
2022-08-22T06:19:20.391Z,17.95
2022-08-22T06:20:20.206Z,18.09
2022-08-22T06:21:20.203Z,18.28
2022-08-22T06:22:20.213Z,18.43
2022-08-22T06:23:20.176Z,18.58
2022-08-22T06:24:20.164Z,18.67
2022-08-22T06:25:20.176Z,18.79
2022-08-22T06:26:21.391Z,18.90
2022-08-22T06:27:20.155Z,19.05
2022-08-22T06:28:20.128Z,19.20
2022-08-22T06:29:20.123Z,19.33
2022-08-22T06:30:20.127Z,19.50
2022-08-22T06:31:20.118Z,19.61
2022-08-22T06:32:30.608Z,19.75
2022-08-22T06:33:20.083Z,19.88
2022-08-22T06:34:20.058Z,20.02
2022-08-22T06:35:20.059Z,20.12
2022-08-22T06:36:20.602Z,20.16
2022-08-22T06:37:20.033Z,20.21
2022-08-22T06:38:20.016Z,20.30
2022-08-22T06:39:20.024Z,20.35
2022-08-22T06:40:20.084Z,20.43
2022-08-22T06:41:20.008Z,20.56
2022-08-22T06:42:19.980Z,20.66
2022-08-22T06:43:19.970Z,20.69
2022-08-22T06:44:19.955Z,20.76
2022-08-22T06:45:19.949Z,20.76
2022-08-22T06:46:19.954Z,20.81
2022-08-22T06:47:19.928Z,20.81
2022-08-22T06:48:19.918Z,20.87
2022-08-22T06:49:19.906Z,20.98
2022-08-22T06:50:19.943Z,21.14
2022-08-22T06:51:19.914Z,21.19
2022-08-22T06:52:19.884Z,21.32
2022-08-22T06:53:19.876Z,21.38
2022-08-22T06:54:19.848Z,21.45
2022-08-22T06:55:19.844Z,21.57
2022-08-22T06:56:19.864Z,21.61
2022-08-22T06:57:19.822Z,21.61
2022-08-22T06:58:19.816Z,21.64
2022-08-22T06:59:19.801Z,21.75
2022-08-22T07:00:19.801Z,21.83
2022-08-22T07:01:19.846Z,21.91
2022-08-22T07:02:19.786Z,21.95
2022-08-22T07:03:19.757Z,21.98
2022-08-22T07:04:19.742Z,22.04
2022-08-22T07:05:19.738Z,22.14
2022-08-22T07:06:19.727Z,22.20
2022-08-22T07:07:20.561Z,22.27
2022-08-22T07:08:19.703Z,22.38
2022-08-22T07:09:19.695Z,22.43
2022-08-22T07:10:19.682Z,22.35
2022-08-22T07:11:19.673Z,22.32
2022-08-22T07:12:19.681Z,22.20
2022-08-22T07:13:19.658Z,22.17
2022-08-22T07:14:19.642Z,22.14
2022-08-22T07:15:19.634Z,22.19
2022-08-22T07:16:19.622Z,22.12
2022-08-22T07:17:19.637Z,22.07
2022-08-22T07:18:19.602Z,22.02
2022-08-22T07:19:19.598Z,21.97
2022-08-22T07:20:19.582Z,21.90
2022-08-22T07:21:19.589Z,21.76
2022-08-22T07:22:19.557Z,21.69
2022-08-22T07:23:19.552Z,21.63
2022-08-22T07:24:19.538Z,21.50
2022-08-22T07:25:19.533Z,21.36
2022-08-22T07:26:19.536Z,21.30
2022-08-22T07:27:19.511Z,21.24
2022-08-22T07:28:19.495Z,21.21
2022-08-22T07:29:19.491Z,21.19
2022-08-22T07:30:27.644Z,21.20
2022-08-22T07:31:19.489Z,21.14
2022-08-22T07:32:19.455Z,21.14
2022-08-22T07:33:26.662Z,21.11
2022-08-22T07:34:19.438Z,21.17
2022-08-22T07:35:19.426Z,21.30
2022-08-22T07:36:19.438Z,21.42
2022-08-22T07:37:19.407Z,21.59
2022-08-22T07:38:19.392Z,21.75
2022-08-22T07:39:19.403Z,21.95
2022-08-22T07:40:19.401Z,22.10
2022-08-22T07:41:19.375Z,22.27
2022-08-22T07:42:19.372Z,22.38
2022-08-22T07:43:19.350Z,22.53
2022-08-22T07:44:19.375Z,22.65
2022-08-22T07:45:19.322Z,22.74
2022-08-22T07:46:19.309Z,22.82
2022-08-22T07:47:26.241Z,22.96
2022-08-22T07:48:25.457Z,23.12
2022-08-22T07:49:19.308Z,23.29
2022-08-22T07:50:19.267Z,23.35
2022-08-22T07:51:19.263Z,23.42
2022-08-22T07:52:19.917Z,23.53
2022-08-22T07:53:19.243Z,23.57
2022-08-22T07:54:19.228Z,23.58
2022-08-22T07:55:19.233Z,23.61
2022-08-22T07:56:19.226Z,23.71
2022-08-22T07:57:19.228Z,23.86
2022-08-22T07:58:19.184Z,24.02
2022-08-22T07:59:19.188Z,24.22
2022-08-22T08:00:19.166Z,24.35
2022-08-22T08:01:19.263Z,24.44
2022-08-22T08:02:19.142Z,24.44
2022-08-22T08:03:19.138Z,24.50
2022-08-22T08:04:19.121Z,24.61
2022-08-22T08:05:19.115Z,24.76
2022-08-22T08:06:19.119Z,24.94
2022-08-22T08:07:19.102Z,25.13
2022-08-22T08:08:19.078Z,25.31
2022-08-22T08:09:19.079Z,25.50
2022-08-22T08:10:19.065Z,25.62
2022-08-22T08:11:19.071Z,25.74
2022-08-22T08:12:19.038Z,25.86
2022-08-22T08:13:19.032Z,25.91
2022-08-22T08:14:19.019Z,25.84
2022-08-22T08:15:19.012Z,25.75
2022-08-22T08:16:19.019Z,25.79
2022-08-22T08:17:19.004Z,25.90
2022-08-22T08:18:18.979Z,26.02
2022-08-22T08:19:18.971Z,26.12
2022-08-22T08:20:18.958Z,26.22
2022-08-22T08:21:18.969Z,26.37
2022-08-22T08:22:18.933Z,26.49
2022-08-22T08:23:18.926Z,26.61
2022-08-22T08:24:18.952Z,26.67
2022-08-22T08:25:18.919Z,26.68
2022-08-22T08:26:18.915Z,26.77
2022-08-22T08:27:18.886Z,26.83
2022-08-22T08:28:18.871Z,26.81
2022-08-22T08:29:18.868Z,26.86
2022-08-22T08:30:18.859Z,26.84
2022-08-22T08:31:18.867Z,26.77
2022-08-22T08:32:18.835Z,26.76
2022-08-22T08:33:25.674Z,26.77
2022-08-22T08:34:18.827Z,26.79
2022-08-22T08:35:18.804Z,26.72
2022-08-22T08:36:18.811Z,26.69
2022-08-22T08:37:18.787Z,26.59
2022-08-22T08:38:18.771Z,26.54
2022-08-22T08:39:18.763Z,26.59
2022-08-22T08:40:18.803Z,26.67
2022-08-22T08:41:22.513Z,26.73
2022-08-22T08:42:18.734Z,26.80
2022-08-22T08:43:18.741Z,26.67
2022-08-22T08:44:18.714Z,26.72
2022-08-22T08:45:18.716Z,26.79
2022-08-22T08:46:18.705Z,26.80
2022-08-22T08:47:18.677Z,26.76
2022-08-22T08:48:18.666Z,26.76
2022-08-22T08:49:18.659Z,26.77
2022-08-22T08:50:18.649Z,26.87
2022-08-22T08:51:18.663Z,26.91
2022-08-22T08:52:18.633Z,26.87
2022-08-22T08:53:18.615Z,26.95
2022-08-22T08:54:18.605Z,26.98
2022-08-22T08:55:19.780Z,27.13
2022-08-22T08:56:19.857Z,27.14
2022-08-22T08:57:18.579Z,27.23
2022-08-22T08:58:18.560Z,27.33
2022-08-22T08:59:18.554Z,27.46
2022-08-22T09:00:18.539Z,27.50
2022-08-22T09:01:19.418Z,27.59
2022-08-22T09:02:20.606Z,27.64
2022-08-22T09:03:24.051Z,27.71
2022-08-22T09:04:18.507Z,27.74
2022-08-22T09:05:19.591Z,27.85
2022-08-22T09:06:18.474Z,27.89
2022-08-22T09:07:18.491Z,27.80
2022-08-22T09:08:18.547Z,27.77
2022-08-22T09:09:18.452Z,27.91
2022-08-22T09:10:18.807Z,28.03
2022-08-22T09:11:18.429Z,28.13
2022-08-22T09:12:18.446Z,28.21
2022-08-22T09:13:18.407Z,28.31
2022-08-22T09:14:18.457Z,28.35
2022-08-22T09:15:18.387Z,28.35
2022-08-22T09:16:18.743Z,28.36
2022-08-22T09:17:18.394Z,28.40
2022-08-22T09:18:18.475Z,28.29
2022-08-22T09:19:18.348Z,28.35
2022-08-22T09:20:19.579Z,28.23
2022-08-22T09:21:27.965Z,28.14
2022-08-22T09:22:18.341Z,28.07
2022-08-22T09:23:18.312Z,27.94
2022-08-22T09:24:18.292Z,27.73
2022-08-22T09:25:18.285Z,27.62
2022-08-22T09:26:18.277Z,27.47
2022-08-22T09:27:18.286Z,27.31
2022-08-22T09:28:18.252Z,27.31
2022-08-22T09:29:18.244Z,27.26
2022-08-22T09:30:18.233Z,27.21
2022-08-22T09:31:33.087Z,27.14
2022-08-22T09:32:19.125Z,27.13
2022-08-22T09:33:18.202Z,27.17
2022-08-22T09:34:23.731Z,27.19
2022-08-22T09:35:18.667Z,27.23
2022-08-22T09:36:18.169Z,27.35
2022-08-22T09:37:18.186Z,27.36
2022-08-22T09:38:18.153Z,27.29
2022-08-22T09:39:18.148Z,27.23
2022-08-22T09:41:18.139Z,27.16
2022-08-22T09:42:18.141Z,27.14
2022-08-22T09:43:21.049Z,27.02
2022-08-22T09:44:18.092Z,27.04
2022-08-22T09:45:18.087Z,27.11
2022-08-22T09:46:18.663Z,27.09
2022-08-22T09:47:18.076Z,26.94
2022-08-22T09:48:18.058Z,26.87
2022-08-22T09:49:18.043Z,26.72
2022-08-22T09:50:18.037Z,26.55
2022-08-22T09:51:31.545Z,26.57
2022-08-22T09:52:33.150Z,26.55
2022-08-22T09:53:18.002Z,26.55
2022-08-22T09:54:18.621Z,26.40
2022-08-22T09:55:17.978Z,26.36
2022-08-22T09:56:17.975Z,26.31
2022-08-22T09:57:17.984Z,26.37
2022-08-22T09:58:17.949Z,26.31
2022-08-22T09:59:17.936Z,26.37
2022-08-22T10:00:17.928Z,26.37
2022-08-22T10:01:18.002Z,26.37
2022-08-22T10:02:17.927Z,26.47
2022-08-22T10:03:17.896Z,26.54
2022-08-22T10:04:19.534Z,26.55
2022-08-22T10:05:40.282Z,26.69
2022-08-22T10:06:17.873Z,26.87
2022-08-22T10:07:17.871Z,27.01
2022-08-22T10:08:19.736Z,27.14
2022-08-22T10:09:17.829Z,27.26
2022-08-22T10:10:17.826Z,27.35
2022-08-22T10:11:18.568Z,27.29
2022-08-22T10:12:17.832Z,27.13
2022-08-22T10:13:17.789Z,27.13
2022-08-22T10:14:22.230Z,27.16
2022-08-22T10:15:17.774Z,27.21
2022-08-22T10:16:17.763Z,27.24
2022-08-22T10:17:21.533Z,27.36
2022-08-22T10:18:17.762Z,27.42
2022-08-22T10:19:18.042Z,27.58
2022-08-22T10:20:17.729Z,27.70
2022-08-22T10:21:17.710Z,27.76
2022-08-22T10:22:17.721Z,27.61
2022-08-22T10:23:17.686Z,27.64
2022-08-22T10:24:25.457Z,27.70
2022-08-22T10:25:18.569Z,27.71
2022-08-22T10:26:23.064Z,27.76
2022-08-22T10:27:17.674Z,27.85
2022-08-22T10:28:17.642Z,27.66
2022-08-22T10:29:17.634Z,27.39
2022-08-22T10:30:17.618Z,27.33
2022-08-22T10:31:18.195Z,27.31
2022-08-22T10:32:17.619Z,27.47
2022-08-22T10:33:17.589Z,27.61
2022-08-22T10:34:17.582Z,27.76
2022-08-22T10:35:17.572Z,27.80
2022-08-22T10:36:17.565Z,27.84
2022-08-22T10:37:17.569Z,27.89
2022-08-22T10:38:17.556Z,27.80
2022-08-22T10:39:17.526Z,27.73
2022-08-22T10:40:17.605Z,27.69
2022-08-22T10:41:17.504Z,27.58
2022-08-22T10:42:18.672Z,27.54
2022-08-22T10:43:17.482Z,27.54
2022-08-22T10:44:17.476Z,27.54
2022-08-22T10:45:35.219Z,27.64
2022-08-22T10:46:17.468Z,27.69
2022-08-22T10:47:18.132Z,27.71
2022-08-22T10:48:17.441Z,27.70
2022-08-22T10:49:18.058Z,27.64
2022-08-22T10:50:17.474Z,27.70
2022-08-22T10:51:17.400Z,27.80
2022-08-22T10:52:17.423Z,28.01
2022-08-22T10:53:17.416Z,28.25
2022-08-22T10:54:20.080Z,28.51
2022-08-22T10:55:17.361Z,28.68
2022-08-22T10:56:17.355Z,28.73
2022-08-22T10:57:20.831Z,28.77
2022-08-22T10:58:17.343Z,28.75
2022-08-22T10:59:17.323Z,28.44
2022-08-22T11:00:17.409Z,28.06
2022-08-22T11:01:38.020Z,27.69
2022-08-22T11:02:17.318Z,27.39
2022-08-22T11:03:21.438Z,27.13
2022-08-22T11:04:17.288Z,26.96
2022-08-22T11:05:17.259Z,26.92
2022-08-22T11:06:17.269Z,26.96
2022-08-22T11:07:17.267Z,26.99
2022-08-22T11:08:17.232Z,27.01
2022-08-22T11:09:17.223Z,27.05
2022-08-22T11:10:17.266Z,27.10
2022-08-22T11:11:17.673Z,27.14
2022-08-22T11:12:17.208Z,27.17
2022-08-22T11:13:17.245Z,27.17
2022-08-22T11:14:17.183Z,27.21
2022-08-22T11:15:27.266Z,27.31
2022-08-22T11:16:17.161Z,27.47
2022-08-22T11:17:28.263Z,27.59
2022-08-22T11:18:17.138Z,27.71
2022-08-22T11:19:17.120Z,27.80
2022-08-22T11:20:17.112Z,27.86
2022-08-22T11:21:17.097Z,27.98
2022-08-22T11:22:17.108Z,28.06
2022-08-22T11:23:17.080Z,28.11
2022-08-22T11:24:17.761Z,28.16
2022-08-22T11:25:23.775Z,28.23
2022-08-22T11:26:30.018Z,28.23
2022-08-22T11:27:17.739Z,28.23
2022-08-22T11:28:17.559Z,28.28
2022-08-22T11:29:17.011Z,28.36
2022-08-22T11:30:18.682Z,28.38
2022-08-22T11:31:16.992Z,28.29
2022-08-22T11:32:17.011Z,28.22
2022-08-22T11:33:16.981Z,28.21
2022-08-22T11:34:16.968Z,28.14
2022-08-22T11:35:16.951Z,28.14
2022-08-22T11:36:17.401Z,28.14
2022-08-22T11:37:16.955Z,28.21
2022-08-22T11:38:16.928Z,28.25
2022-08-22T11:39:18.625Z,28.31
2022-08-22T11:40:17.056Z,28.38
2022-08-22T11:41:16.890Z,28.44
2022-08-22T11:42:21.796Z,28.51
2022-08-22T11:43:18.363Z,28.58
2022-08-22T11:44:16.863Z,28.65
2022-08-22T11:45:16.901Z,28.70
2022-08-22T11:46:19.934Z,28.78
2022-08-22T11:47:16.861Z,28.81
2022-08-22T11:48:16.822Z,28.75
2022-08-22T11:49:16.826Z,28.75
2022-08-22T11:50:16.896Z,28.77
2022-08-22T11:51:16.787Z,28.75
2022-08-22T11:52:16.809Z,28.70
2022-08-22T11:53:16.766Z,28.73
2022-08-22T11:54:16.760Z,28.75
2022-08-22T11:55:16.756Z,28.78
2022-08-22T11:56:16.743Z,28.75
2022-08-22T11:57:16.745Z,28.77
2022-08-22T11:58:16.721Z,28.77
2022-08-22T11:59:16.705Z,28.75
2022-08-22T12:00:16.699Z,28.77
2022-08-22T12:01:18.354Z,28.78
2022-08-22T12:02:16.700Z,28.80
2022-08-22T12:03:16.665Z,28.75
2022-08-22T12:04:16.663Z,28.68
2022-08-22T12:05:20.206Z,28.65
2022-08-22T12:06:16.643Z,28.70
2022-08-22T12:07:16.645Z,28.75
2022-08-22T12:08:21.183Z,28.81
2022-08-22T12:09:17.938Z,28.84
2022-08-22T12:10:16.641Z,28.87
2022-08-22T12:11:16.584Z,28.93
2022-08-22T12:12:17.059Z,28.97
2022-08-22T12:13:16.569Z,29.04
2022-08-22T12:14:16.560Z,29.11
2022-08-22T12:15:16.543Z,29.10
2022-08-22T12:16:16.543Z,29.11
2022-08-22T12:17:22.772Z,29.18
2022-08-22T12:18:19.978Z,29.25
2022-08-22T12:19:16.505Z,29.31
2022-08-22T12:20:17.341Z,29.41
2022-08-22T12:21:16.484Z,29.49
2022-08-22T12:22:16.505Z,29.47
2022-08-22T12:23:16.462Z,29.47
2022-08-22T12:24:19.048Z,29.56
2022-08-22T12:25:16.445Z,29.60
2022-08-22T12:26:16.445Z,29.63
2022-08-22T12:27:18.495Z,29.66
2022-08-22T12:28:16.420Z,29.71
2022-08-22T12:29:16.873Z,29.77
2022-08-22T12:30:16.497Z,29.66
2022-08-22T12:31:16.384Z,29.57
2022-08-22T12:32:16.397Z,29.45
2022-08-22T12:33:22.011Z,29.49
2022-08-22T12:34:16.361Z,29.50
2022-08-22T12:35:16.341Z,29.55
2022-08-22T12:36:17.977Z,29.60
2022-08-22T12:37:16.346Z,29.57
2022-08-22T12:38:26.560Z,29.53
2022-08-22T12:39:16.312Z,29.45
2022-08-22T12:40:16.527Z,29.37
2022-08-22T12:41:28.079Z,29.20
2022-08-22T12:42:16.282Z,29.03
2022-08-22T12:43:16.279Z,28.93
2022-08-22T12:44:17.308Z,28.91
2022-08-22T12:45:17.137Z,29.00
2022-08-22T12:46:16.250Z,29.11
2022-08-22T12:47:17.223Z,29.29
2022-08-22T12:48:16.239Z,29.47
2022-08-22T12:49:16.201Z,29.62
2022-08-22T12:50:16.279Z,29.68
2022-08-22T12:51:17.550Z,29.72
2022-08-22T12:52:16.174Z,29.89
2022-08-22T12:53:20.091Z,30.05
2022-08-22T12:54:16.153Z,30.15
2022-08-22T12:55:16.141Z,30.31